Time;durP1;ratioP1;P1;durP2;ratioP2;P2;SDS_P1;SDS_P2;PMS_P1;PMS_P2;Temp;Humidity;BMP_temperature;BMP_pressure;BME280_temperature;BME280_humidity;BME280_pressure;Samples;Min_cycle;Max_cycle;Signal;HPM_P1;HPM_P2
2022/10/25 00:01:15;;;;;;;0.75;0.52;;;12.40;99.90;;;;;;5004171;28;20056;-76
2022/10/25 00:03:42;;;;;;;0.95;0.57;;;12.30;99.90;;;;;;5028870;28;20482;-76
2022/10/25 00:06:09;;;;;;;0.73;0.60;;;12.40;99.90;;;;;;5007991;28;20057;-76
2022/10/25 00:08:36;;;;;;;1.17;0.65;;;12.40;99.90;;;;;;5028233;28;20135;-76
2022/10/25 00:11:03;;;;;;;0.90;0.50;;;12.30;99.90;;;;;;5024443;28;20057;-77
2022/10/25 00:13:30;;;;;;;0.63;0.52;;;12.30;99.90;;;;;;5014290;28;20040;-76
2022/10/25 00:15:57;;;;;;;0.52;0.38;;;12.30;99.90;;;;;;5009939;28;20053;-77
2022/10/25 00:18:24;;;;;;;0.35;0.35;;;12.30;99.90;;;;;;5022472;28;20073;-76
2022/10/25 00:20:51;;;;;;;2.78;0.85;;;12.30;99.90;;;;;;5038475;28;20160;-76
2022/10/25 00:23:17;;;;;;;1.33;0.52;;;12.30;99.90;;;;;;5022340;28;20057;-76
2022/10/25 00:25:44;;;;;;;0.57;0.40;;;12.30;99.90;;;;;;5041268;28;20053;-78
2022/10/25 00:28:11;;;;;;;0.98;0.50;;;12.20;99.90;;;;;;5023989;28;20111;-78
2022/10/25 00:30:37;;;;;;;0.50;0.50;;;12.30;99.90;;;;;;5044146;28;20059;-78
2022/10/25 00:33:04;;;;;;;0.40;0.40;;;12.20;99.90;;;;;;5025920;28;20551;-76
2022/10/25 00:35:31;;;;;;;0.30;0.30;;;12.20;99.90;;;;;;5044586;28;20076;-79
2022/10/25 00:37:59;;;;;;;0.40;0.40;;;12.10;99.90;;;;;;5044408;28;20048;-76
2022/10/25 00:40:26;;;;;;;1.25;0.45;;;12.10;99.90;;;;;;5043506;28;20053;-78
2022/10/25 00:42:53;;;;;;;0.80;0.47;;;12.10;99.90;;;;;;5044414;28;20051;-78
2022/10/25 00:45:24;;;;;;;0.90;0.60;;;12.10;99.90;;;;;;5044496;28;20413;-76
2022/10/25 00:47:58;;;;;;;1.00;0.60;;;12.10;99.90;;;;;;5026032;28;20045;-76
2022/10/25 00:50:44;;;;;;;1.05;0.52;;;12.10;99.90;;;;;;5042125;28;20060;-76
2022/10/25 00:53:17;;;;;;;0.60;0.50;;;12.10;99.90;;;;;;5051238;28;20139;-76
2022/10/25 00:55:45;;;;;;;0.57;0.57;;;12.10;99.90;;;;;;5028170;28;20409;-76
2022/10/25 00:58:15;;;;;;;1.33;0.50;;;12.10;99.90;;;;;;5040358;28;20041;-79
2022/10/25 01:00:42;;;;;;;1.02;0.57;;;12.10;99.90;;;;;;5024730;28;20057;-76
2022/10/25 01:03:09;;;;;;;1.08;0.50;;;12.10;99.90;;;;;;5024804;28;20135;-76
2022/10/25 01:05:35;;;;;;;0.52;0.52;;;12.10;99.90;;;;;;5027579;28;20056;-76
2022/10/25 01:08:04;;;;;;;0.73;0.60;;;12.00;99.90;;;;;;5047164;28;20056;-76
2022/10/25 01:10:31;;;;;;;0.30;0.30;;;12.00;99.90;;;;;;5041283;28;20054;-76
2022/10/25 01:13:00;;;;;;;1.23;0.50;;;12.10;99.90;;;;;;5059108;28;20068;-76
2022/10/25 01:15:32;;;;;;;0.50;0.50;;;12.00;99.90;;;;;;5041131;28;20053;-76
2022/10/25 01:18:14;;;;;;;0.50;0.50;;;12.00;99.90;;;;;;5026099;28;20524;-76
2022/10/25 01:21:09;;;;;;;0.45;0.30;;;12.10;99.90;;;;;;5026464;28;20069;-76
2022/10/25 01:24:00;;;;;;;0.88;0.60;;;12.00;99.90;;;;;;5050608;28;20103;-76
2022/10/25 01:26:46;;;;;;;0.77;0.40;;;12.10;99.90;;;;;;5048813;28;20049;-76
2022/10/25 01:29:28;;;;;;;0.68;0.40;;;12.10;99.90;;;;;;5048167;28;20045;-77
2022/10/25 01:32:26;;;;;;;2.28;0.70;;;12.10;99.90;;;;;;5049017;28;20445;-76
2022/10/25 01:34:56;;;;;;;0.50;0.50;;;12.20;99.90;;;;;;5024397;28;20140;-77
2022/10/25 01:37:45;;;;;;;0.75;0.40;;;12.30;99.90;;;;;;5025539;28;20049;-76
2022/10/25 01:40:27;;;;;;;0.63;0.55;;;12.40;99.90;;;;;;5043190;28;20046;-76
2022/10/25 01:43:01;;;;;;;1.35;0.50;;;12.40;99.90;;;;;;5045387;28;20614;-76
2022/10/25 01:45:40;;;;;;;0.90;0.60;;;12.50;99.90;;;;;;5012526;28;20143;-76
2022/10/25 01:48:15;;;;;;;0.38;0.30;;;12.60;99.90;;;;;;5046485;28;20045;-76
2022/10/25 01:50:43;;;;;;;1.10;0.47;;;12.60;99.90;;;;;;5047696;28;20370;-76
2022/10/25 01:53:11;;;;;;;0.50;0.40;;;12.70;99.90;;;;;;5027277;28;20568;-76
2022/10/25 01:55:56;;;;;;;0.70;0.30;;;12.70;99.90;;;;;;5028180;28;20056;-76
2022/10/25 01:58:37;;;;;;;2.58;1.02;;;12.70;99.90;;;;;;5012601;28;20485;-76
2022/10/25 02:01:28;;;;;;;1.35;0.50;;;12.70;99.90;;;;;;5028216;28;20045;-77
2022/10/25 02:04:05;;;;;;;1.65;0.70;;;12.70;99.90;;;;;;5028910;28;20045;-76
2022/10/25 02:06:54;;;;;;;1.10;0.70;;;12.80;99.90;;;;;;5031527;28;20061;-77
2022/10/25 02:09:29;;;;;;;2.83;0.68;;;12.80;99.90;;;;;;5047473;28;20056;-76
2022/10/25 02:11:56;;;;;;;1.10;0.52;;;12.70;99.90;;;;;;5046935;28;20057;-76
2022/10/25 02:14:31;;;;;;;0.47;0.40;;;12.70;99.90;;;;;;5043942;28;20056;-76
2022/10/25 02:17:15;;;;;;;1.10;0.65;;;12.70;99.90;;;;;;5009928;28;20714;-76
2022/10/25 02:19:47;;;;;;;0.90;0.40;;;12.60;99.90;;;;;;5011746;28;20045;-76
2022/10/25 02:22:14;;;;;;;3.80;0.70;;;12.60;99.90;;;;;;5011736;28;20059;-76
2022/10/25 02:24:42;;;;;;;0.52;0.52;;;12.70;99.90;;;;;;5031014;28;20055;-76
2022/10/25 02:27:08;;;;;;;0.80;0.45;;;12.60;99.90;;;;;;5030347;28;20465;-76
2022/10/25 02:29:35;;;;;;;0.40;0.32;;;12.60;99.90;;;;;;5030660;28;20053;-76
2022/10/25 02:32:03;;;;;;;2.15;0.60;;;12.60;99.90;;;;;;5030049;28;20049;-76
2022/10/25 02:34:30;;;;;;;1.10;0.45;;;12.50;99.90;;;;;;5027334;28;20054;-76
2022/10/25 02:36:57;;;;;;;0.63;0.40;;;12.50;99.90;;;;;;5025714;28;20046;-76
2022/10/25 02:39:25;;;;;;;0.28;0.20;;;12.50;99.90;;;;;;5043588;28;20065;-76
2022/10/25 02:41:56;;;;;;;0.67;0.37;;;12.40;99.90;;;;;;5042799;28;20073;-76
2022/10/25 02:44:23;;;;;;;0.73;0.50;;;12.50;99.90;;;;;;5045762;28;20953;-76
2022/10/25 02:46:50;;;;;;;1.17;0.70;;;12.40;99.90;;;;;;5045855;28;20053;-76
2022/10/25 02:49:16;;;;;;;1.58;0.45;;;12.40;99.90;;;;;;5047064;28;20049;-76
2022/10/25 02:51:43;;;;;;;1.00;0.57;;;12.40;99.90;;;;;;5062046;28;20055;-76
2022/10/25 02:54:10;;;;;;;0.32;0.30;;;12.40;99.90;;;;;;5030067;28;20049;-76
2022/10/25 02:56:37;;;;;;;1.40;0.45;;;12.40;99.90;;;;;;5028250;28;20199;-77
2022/10/25 02:59:03;;;;;;;0.95;0.47;;;12.40;99.90;;;;;;5026634;28;20050;-76
2022/10/25 03:01:30;;;;;;;1.98;0.70;;;12.40;99.90;;;;;;5026153;28;20062;-76
2022/10/25 03:03:57;;;;;;;0.90;0.60;;;12.40;99.90;;;;;;5037871;28;20571;-76
2022/10/25 03:06:24;;;;;;;0.52;0.40;;;12.40;99.90;;;;;;5025603;28;20049;-76
2022/10/25 03:08:50;;;;;;;0.77;0.60;;;12.30;99.90;;;;;;5025741;28;20544;-76
2022/10/25 03:11:18;;;;;;;1.00;0.60;;;12.30;99.90;;;;;;5027950;28;20041;-76
2022/10/25 03:13:44;;;;;;;0.40;0.40;;;12.30;99.90;;;;;;5040898;28;20053;-76
2022/10/25 03:16:11;;;;;;;0.98;0.40;;;12.30;99.90;;;;;;5045201;28;20444;-76
2022/10/25 03:18:38;;;;;;;1.25;0.70;;;12.30;99.90;;;;;;5046791;28;20059;-76
2022/10/25 03:21:05;;;;;;;1.15;0.50;;;12.30;99.90;;;;;;5045604;28;20064;-76
2022/10/25 03:23:32;;;;;;;0.95;0.45;;;12.30;99.90;;;;;;5025283;28;20048;-77
2022/10/25 03:25:59;;;;;;;1.10;0.50;;;12.30;99.90;;;;;;5027324;28;20049;-76
2022/10/25 03:28:26;;;;;;;1.77;0.60;;;12.20;99.90;;;;;;5025913;28;20128;-76
2022/10/25 03:30:54;;;;;;;0.65;0.50;;;12.20;99.90;;;;;;5026417;28;20118;-76
2022/10/25 03:33:20;;;;;;;0.75;0.50;;;12.20;99.90;;;;;;5025469;28;20041;-76
2022/10/25 03:35:54;;;;;;;2.47;0.57;;;12.20;99.90;;;;;;5041374;28;20058;-76
2022/10/25 03:38:20;;;;;;;;;;;12.20;99.90;;;;;;5042541;28;20041;-76
2022/10/25 03:40:47;;;;;;;0.88;0.50;;;12.20;99.90;;;;;;5042737;28;19921;-76
2022/10/25 03:43:14;;;;;;;0.65;0.35;;;12.20;99.90;;;;;;5034010;28;20057;-77
2022/10/25 03:45:41;;;;;;;0.80;0.47;;;12.20;99.90;;;;;;5045419;28;20053;-76
2022/10/25 03:48:08;;;;;;;2.22;0.60;;;12.20;99.90;;;;;;5045029;28;20051;-77
2022/10/25 03:50:37;;;;;;;0.90;0.50;;;12.20;99.90;;;;;;5044880;28;20053;-76
2022/10/25 03:53:04;;;;;;;1.38;0.52;;;12.20;99.90;;;;;;5054080;28;20045;-76
2022/10/25 03:55:31;;;;;;;1.10;0.77;;;12.10;99.90;;;;;;4993481;28;20058;-76
2022/10/25 03:57:58;;;;;;;1.35;0.50;;;12.20;99.90;;;;;;5025730;28;20049;-76
2022/10/25 04:00:25;;;;;;;3.35;1.05;;;12.10;99.90;;;;;;5009367;28;20064;-76
2022/10/25 04:02:56;;;;;;;1.00;0.40;;;12.20;99.90;;;;;;5008340;28;20076;-76
2022/10/25 04:05:29;;;;;;;0.52;0.40;;;12.10;99.90;;;;;;5024766;28;20061;-76
2022/10/25 04:07:57;;;;;;;0.60;0.50;;;12.10;99.90;;;;;;5008146;28;20045;-76
2022/10/25 04:10:23;;;;;;;0.82;0.32;;;12.20;99.90;;;;;;5024654;28;20065;-76
2022/10/25 04:12:51;;;;;;;0.57;0.40;;;12.20;99.90;;;;;;4996896;28;20102;-76
2022/10/25 04:15:20;;;;;;;0.80;0.57;;;12.10;99.90;;;;;;5028474;28;20071;-76
2022/10/25 04:17:50;;;;;;;1.10;0.60;;;12.10;99.90;;;;;;5027877;28;20148;-76
2022/10/25 04:20:17;;;;;;;0.40;0.30;;;12.10;99.90;;;;;;5027815;28;20074;-76
2022/10/25 04:22:44;;;;;;;0.70;0.40;;;12.10;99.90;;;;;;5008064;28;20055;-76
2022/10/25 04:25:11;;;;;;;0.40;0.40;;;12.10;99.90;;;;;;5009166;28;20044;-76
2022/10/25 04:27:37;;;;;;;0.77;0.50;;;12.10;99.90;;;;;;4992574;28;20045;-76
2022/10/25 04:30:04;;;;;;;0.30;0.30;;;12.10;99.90;;;;;;5026936;28;20055;-76
2022/10/25 04:32:31;;;;;;;0.47;0.40;;;12.10;99.90;;;;;;4993595;28;20046;-76
2022/10/25 04:34:58;;;;;;;0.40;0.40;;;12.10;99.90;;;;;;5012086;28;20068;-76
2022/10/25 04:37:25;;;;;;;0.73;0.50;;;12.10;99.90;;;;;;5027678;28;20638;-76
2022/10/25 04:39:52;;;;;;;2.30;0.55;;;12.10;99.90;;;;;;5028215;28;20049;-75
2022/10/25 04:42:19;;;;;;;1.63;0.52;;;12.20;99.90;;;;;;5028534;28;20057;-76
2022/10/25 04:44:45;;;;;;;1.00;0.57;;;12.20;99.90;;;;;;5012063;28;20049;-76
2022/10/25 04:47:12;;;;;;;1.60;0.60;;;12.20;99.90;;;;;;5027566;28;20053;-77
2022/10/25 04:49:39;;;;;;;0.40;0.40;;;12.20;99.90;;;;;;5026007;28;20637;-77
2022/10/25 04:52:06;;;;;;;1.20;0.60;;;12.20;99.90;;;;;;5022290;28;20057;-76
2022/10/25 04:54:32;;;;;;;1.63;0.50;;;12.20;99.90;;;;;;5023439;28;20060;-77
2022/10/25 04:56:59;;;;;;;0.75;0.40;;;12.20;99.90;;;;;;4990121;28;20056;-76
2022/10/25 04:59:26;;;;;;;1.20;0.55;;;12.20;99.90;;;;;;5022762;28;20064;-77
2022/10/25 05:01:53;;;;;;;2.45;0.50;;;12.20;99.90;;;;;;5024499;28;20103;-77
2022/10/25 05:04:19;;;;;;;1.10;0.32;;;12.20;99.90;;;;;;5021310;28;20048;-77
2022/10/25 05:06:47;;;;;;;0.50;0.50;;;12.20;99.90;;;;;;5006605;28;20132;-76
2022/10/25 05:09:13;;;;;;;0.80;0.40;;;12.20;99.90;;;;;;5035959;28;20052;-77
2022/10/25 05:11:40;;;;;;;0.73;0.52;;;12.10;99.90;;;;;;5019655;28;20647;-76
2022/10/25 05:14:07;;;;;;;1.92;0.50;;;12.20;99.90;;;;;;5022568;28;20045;-77
2022/10/25 05:16:34;;;;;;;1.90;0.50;;;12.20;99.90;;;;;;5039981;28;20053;-77
2022/10/25 05:19:00;;;;;;;1.30;0.68;;;12.10;99.90;;;;;;5039068;28;20049;-77
2022/10/25 05:21:29;;;;;;;1.17;0.50;;;12.20;99.90;;;;;;5004813;28;20069;-77
2022/10/25 05:23:57;;;;;;;0.52;0.40;;;12.20;99.90;;;;;;5056222;28;20056;-77
2022/10/25 05:26:27;;;;;;;0.82;0.60;;;12.20;99.90;;;;;;5018461;28;20068;-77
2022/10/25 05:28:55;;;;;;;1.15;0.45;;;12.10;99.90;;;;;;5035900;28;20140;-77
2022/10/25 05:31:27;;;;;;;0.88;0.47;;;12.20;99.90;;;;;;5021777;28;20064;-76
2022/10/25 05:33:58;;;;;;;0.30;0.30;;;12.20;99.90;;;;;;5019695;28;20403;-76
2022/10/25 05:36:24;;;;;;;2.22;0.60;;;12.20;99.90;;;;;;5006150;28;20420;-76
2022/10/25 05:38:51;;;;;;;0.85;0.50;;;12.20;99.90;;;;;;5035725;28;20132;-77
2022/10/25 05:41:18;;;;;;;1.13;0.60;;;12.30;99.90;;;;;;5045333;28;20064;-76
2022/10/25 05:43:44;;;;;;;1.00;0.60;;;12.30;99.90;;;;;;5022831;28;20048;-77
2022/10/25 05:46:21;;;;;;;0.88;0.50;;;12.30;99.90;;;;;;5008806;28;20056;-76
2022/10/25 05:48:49;;;;;;;0.70;0.40;;;12.40;99.90;;;;;;5004370;28;20064;-76
2022/10/25 05:51:20;;;;;;;1.05;0.57;;;12.50;99.90;;;;;;5013319;28;20056;-78
2022/10/25 05:54:01;;;;;;;0.43;0.35;;;12.50;99.90;;;;;;5038003;28;20103;-77
2022/10/25 05:56:28;;;;;;;0.47;0.40;;;12.60;99.90;;;;;;5020633;28;20061;-76
2022/10/25 05:58:56;;;;;;;3.78;0.65;;;12.70;99.90;;;;;;5056928;28;20052;-77
2022/10/25 06:01:24;;;;;;;0.70;0.38;;;12.70;99.90;;;;;;5007861;28;20183;-77
2022/10/25 06:03:52;;;;;;;0.45;0.40;;;12.80;99.90;;;;;;5021529;28;20049;-77
2022/10/25 06:06:19;;;;;;;0.85;0.40;;;12.80;99.90;;;;;;5041762;28;20071;-77
2022/10/25 06:08:46;;;;;;;0.80;0.70;;;12.90;99.90;;;;;;5003482;28;20130;-78
2022/10/25 06:11:17;;;;;;;0.68;0.40;;;12.90;99.90;;;;;;5039702;28;20455;-78
2022/10/25 06:13:44;;;;;;;2.60;0.45;;;13.00;99.90;;;;;;5024690;28;20445;-78
2022/10/25 06:16:15;;;;;;;1.15;0.65;;;13.00;99.90;;;;;;5020419;28;20067;-78
2022/10/25 06:18:43;;;;;;;0.95;0.73;;;13.00;99.90;;;;;;5015270;28;20492;-78
2022/10/25 06:21:17;;;;;;;1.95;0.68;;;13.00;99.90;;;;;;5002576;28;20050;-78
2022/10/25 06:23:44;;;;;;;2.42;1.08;;;13.10;99.90;;;;;;5014665;28;20053;-78
2022/10/25 06:26:13;;;;;;;0.93;0.60;;;13.10;99.90;;;;;;5023941;28;20052;-78
2022/10/25 06:28:40;;;;;;;1.77;0.60;;;13.10;99.90;;;;;;5036584;28;20389;-78
2022/10/25 06:31:08;;;;;;;1.92;0.93;;;13.10;99.90;;;;;;5004299;28;20123;-78
2022/10/25 06:33:35;;;;;;;1.13;0.40;;;13.00;99.90;;;;;;5029458;28;20049;-77
2022/10/25 06:36:03;;;;;;;1.17;0.60;;;13.00;99.90;;;;;;5039441;28;20092;-77
2022/10/25 06:38:30;;;;;;;1.48;0.68;;;13.00;99.90;;;;;;5041390;28;20060;-77
2022/10/25 06:41:00;;;;;;;2.78;1.00;;;12.90;99.90;;;;;;5007346;28;20155;-77
2022/10/25 06:43:27;;;;;;;1.95;1.10;;;13.00;99.90;;;;;;5007270;28;20053;-77
2022/10/25 06:45:54;;;;;;;1.48;0.73;;;12.90;99.90;;;;;;5039971;28;20049;-77
2022/10/25 06:48:21;;;;;;;2.45;1.10;;;12.90;99.90;;;;;;5038982;28;20057;-77
2022/10/25 06:50:48;;;;;;;1.15;0.82;;;13.00;99.90;;;;;;5005049;28;20207;-77
2022/10/25 06:53:17;;;;;;;1.70;0.85;;;13.00;99.90;;;;;;5002970;28;20456;-77
2022/10/25 06:55:46;;;;;;;2.15;0.80;;;13.10;99.90;;;;;;5020551;28;20053;-79
2022/10/25 06:58:12;;;;;;;1.48;0.60;;;13.20;99.90;;;;;;4987193;28;20049;-77
2022/10/25 07:00:39;;;;;;;1.88;0.77;;;13.30;99.90;;;;;;5039038;28;20056;-77
2022/10/25 07:03:10;;;;;;;0.77;0.60;;;13.30;99.90;;;;;;5018695;28;20065;-77
2022/10/25 07:05:37;;;;;;;1.23;0.65;;;13.40;99.90;;;;;;5002851;28;20053;-80
2022/10/25 07:08:04;;;;;;;2.17;0.70;;;13.40;99.90;;;;;;5019815;28;20555;-79
2022/10/25 07:10:31;;;;;;;0.90;0.43;;;13.50;99.90;;;;;;5021692;28;20617;-77
2022/10/25 07:12:58;;;;;;;1.08;0.63;;;13.50;99.90;;;;;;5037092;28;20049;-77
2022/10/25 07:15:25;;;;;;;0.55;0.50;;;13.60;99.90;;;;;;5039463;28;20060;-79
2022/10/25 07:17:53;;;;;;;0.50;0.50;;;13.60;99.90;;;;;;5021649;28;20065;-77
2022/10/25 07:20:20;;;;;;;0.85;0.47;;;13.60;99.90;;;;;;5002488;28;20450;-79
2022/10/25 07:22:49;;;;;;;1.35;0.63;;;13.70;99.90;;;;;;5023369;28;20544;-79
2022/10/25 07:25:15;;;;;;;1.30;0.65;;;13.70;99.90;;;;;;5006257;28;20475;-78
2022/10/25 07:27:42;;;;;;;1.30;0.50;;;13.70;99.90;;;;;;5039051;28;20057;-79
2022/10/25 07:30:10;;;;;;;1.02;0.75;;;13.80;99.90;;;;;;5040334;28;20488;-77
2022/10/25 07:32:37;;;;;;;0.80;0.60;;;13.80;99.90;;;;;;5038110;28;20064;-77
2022/10/25 07:35:08;;;;;;;1.13;0.60;;;13.80;99.90;;;;;;5022806;28;20130;-77
2022/10/25 07:37:35;;;;;;;0.80;0.40;;;13.90;99.90;;;;;;5005481;28;20245;-77
2022/10/25 07:40:01;;;;;;;2.15;0.93;;;13.90;99.90;;;;;;5019223;28;20440;-79
2022/10/25 07:42:29;;;;;;;1.70;0.70;;;14.00;99.90;;;;;;5002954;28;20053;-79
2022/10/25 07:44:56;;;;;;;1.77;0.60;;;14.00;99.90;;;;;;5035205;28;20092;-79
2022/10/25 07:47:22;;;;;;;1.10;0.68;;;14.00;99.90;;;;;;5001362;28;20501;-77
2022/10/25 07:49:49;;;;;;;0.90;0.50;;;14.00;99.90;;;;;;5014687;28;20045;-77
2022/10/25 07:52:16;;;;;;;0.88;0.50;;;14.10;99.90;;;;;;5037954;28;20386;-78
2022/10/25 07:54:43;;;;;;;1.02;0.57;;;14.10;99.90;;;;;;5018550;28;20052;-79
2022/10/25 07:57:10;;;;;;;0.32;0.32;;;14.10;99.90;;;;;;5002491;28;20088;-79
2022/10/25 07:59:37;;;;;;;0.80;0.60;;;14.10;99.90;;;;;;5029201;28;20045;-77
2022/10/25 08:02:04;;;;;;;1.42;0.68;;;14.20;99.90;;;;;;5004795;28;20061;-77
2022/10/25 08:04:31;;;;;;;1.45;0.75;;;14.10;99.90;;;;;;5021103;28;20457;-78
2022/10/25 08:07:00;;;;;;;0.85;0.63;;;14.10;99.90;;;;;;5018786;28;20099;-78
2022/10/25 08:09:27;;;;;;;1.38;0.88;;;14.00;99.90;;;;;;5029044;28;20055;-79
2022/10/25 08:12:04;;;;;;;1.00;0.70;;;14.00;99.90;;;;;;5037915;28;20115;-77
2022/10/25 08:14:31;;;;;;;0.98;0.73;;;14.00;99.90;;;;;;5021950;28;20554;-78
2022/10/25 08:17:03;;;;;;;0.73;0.73;;;14.00;99.90;;;;;;5037721;28;20406;-77
2022/10/25 08:19:30;;;;;;;1.30;0.80;;;14.10;99.90;;;;;;5035458;28;20049;-78
2022/10/25 08:21:57;;;;;;;2.25;0.93;;;14.10;99.90;;;;;;5018261;28;20056;-76
2022/10/25 08:24:24;;;;;;;2.28;0.90;;;14.10;99.90;;;;;;5042877;28;20045;-76
2022/10/25 08:26:51;;;;;;;1.00;0.70;;;14.10;99.90;;;;;;5039396;28;20110;-76
2022/10/25 08:29:18;;;;;;;1.23;0.90;;;14.10;99.90;;;;;;5011696;28;20037;-76
2022/10/25 08:31:45;;;;;;;1.83;1.10;;;14.20;99.90;;;;;;5045795;28;20049;-79
2022/10/25 08:34:11;;;;;;;2.17;1.00;;;14.30;99.90;;;;;;5032330;28;20045;-79
2022/10/25 08:36:38;;;;;;;2.35;0.70;;;14.30;99.90;;;;;;5044433;28;20365;-79
2022/10/25 08:39:05;;;;;;;1.17;0.70;;;14.40;99.90;;;;;;5040897;28;20056;-80
2022/10/25 08:41:47;;;;;;;0.57;0.50;;;14.50;99.90;;;;;;5003449;28;20484;-81
2022/10/25 08:44:22;;;;;;;1.25;0.70;;;14.50;99.90;;;;;;5020779;28;20477;-81
2022/10/25 08:46:54;;;;;;;1.85;0.60;;;14.60;99.90;;;;;;5019600;28;20041;-79
2022/10/25 08:49:28;;;;;;;1.75;0.98;;;14.70;99.90;;;;;;5019533;28;20056;-80
2022/10/25 08:51:55;;;;;;;1.33;0.80;;;14.70;99.90;;;;;;5020468;28;20467;-80
2022/10/25 08:54:52;;;;;;;1.77;0.73;;;14.80;99.90;;;;;;5006008;28;20049;-80
2022/10/25 08:57:21;;;;;;;1.38;0.52;;;14.90;99.90;;;;;;4999874;28;20057;-80
2022/10/25 08:59:51;;;;;;;1.45;0.50;;;14.90;99.90;;;;;;5017303;28;20249;-80
2022/10/25 09:02:44;;;;;;;0.95;0.60;;;15.00;99.90;;;;;;5017408;28;20053;-80
2022/10/25 09:05:35;;;;;;;2.60;0.80;;;15.00;99.90;;;;;;5017973;28;20456;-80
2022/10/25 09:08:14;;;;;;;2.35;0.90;;;15.10;99.90;;;;;;5017310;28;20053;-80
2022/10/25 09:11:09;;;;;;;1.65;0.88;;;15.10;99.90;;;;;;5037055;28;20511;-80
2022/10/25 09:13:39;;;;;;;2.20;0.90;;;15.20;99.90;;;;;;5001069;28;20064;-79
2022/10/25 09:16:16;;;;;;;1.17;0.80;;;15.30;99.90;;;;;;5038234;28;20505;-80
2022/10/25 09:18:58;;;;;;;3.45;0.93;;;15.30;99.90;;;;;;5006180;28;20540;-79
2022/10/25 09:21:43;;;;;;;2.75;0.98;;;15.40;99.90;;;;;;5024760;28;20080;-79
2022/10/25 09:24:13;;;;;;;2.20;0.95;;;15.40;99.90;;;;;;5040558;28;20065;-80
2022/10/25 09:26:42;;;;;;;2.03;0.80;;;15.50;99.90;;;;;;5041270;28;20071;-79
2022/10/25 09:29:32;;;;;;;0.98;0.60;;;15.60;99.90;;;;;;5005233;28;20501;-79
2022/10/25 09:31:59;;;;;;;1.88;1.00;;;15.70;99.90;;;;;;5020550;28;20049;-80
2022/10/25 09:34:29;;;;;;;1.55;0.60;;;15.70;99.90;;;;;;5024336;28;20154;-81
2022/10/25 09:37:05;;;;;;;2.05;0.93;;;15.70;99.90;;;;;;5022752;28;20057;-80
2022/10/25 09:39:48;;;;;;;2.25;0.90;;;15.90;99.90;;;;;;5002403;28;20438;-82
2022/10/25 09:42:24;;;;;;;2.40;1.10;;;15.90;99.90;;;;;;5026977;28;20045;-82
2022/10/25 09:44:55;;;;;;;3.60;1.10;;;16.00;99.90;;;;;;5010756;28;20045;-81
2022/10/25 09:47:41;;;;;;;2.35;1.27;;;16.00;99.90;;;;;;5019522;28;20045;-80
2022/10/25 09:50:20;;;;;;;2.85;1.00;;;16.00;99.90;;;;;;5046388;28;20053;-84
2022/10/25 09:53:06;;;;;;;2.58;0.98;;;16.10;99.90;;;;;;5011910;28;20369;-83
2022/10/25 09:55:50;;;;;;;3.22;1.20;;;16.10;99.90;;;;;;5044091;28;20053;-80
2022/10/25 09:58:27;;;;;;;2.42;0.90;;;16.20;99.90;;;;;;5046024;28;20410;-81
2022/10/25 10:00:57;;;;;;;2.85;0.90;;;16.30;99.90;;;;;;5061092;28;20052;-81
2022/10/25 10:03:29;;;;;;;1.85;0.80;;;16.30;99.90;;;;;;5050159;28;20236;-81
2022/10/25 10:06:26;;;;;;;2.47;1.10;;;16.30;99.90;;;;;;5048306;28;20208;-81
2022/10/25 10:09:07;;;;;;;1.73;0.90;;;16.40;99.90;;;;;;5014507;28;20136;-81
2022/10/25 10:11:34;;;;;;;1.15;0.63;;;16.40;99.90;;;;;;5026746;28;20057;-80
2022/10/25 10:14:11;;;;;;;1.58;1.10;;;16.50;99.90;;;;;;5039102;28;20045;-81
2022/10/25 10:16:56;;;;;;;1.77;0.80;;;16.60;99.90;;;;;;5030493;28;20053;-81
2022/10/25 10:19:24;;;;;;;1.50;0.70;;;16.80;99.90;;;;;;5020128;28;20045;-82
2022/10/25 10:21:55;;;;;;;1.95;0.85;;;16.90;99.90;;;;;;5031233;28;20053;-81
2022/10/25 10:24:25;;;;;;;1.95;0.80;;;17.00;99.90;;;;;;5058344;28;20045;-81
2022/10/25 10:26:56;;;;;;;2.15;0.88;;;17.10;99.90;;;;;;5042925;28;20854;-81
2022/10/25 10:29:24;;;;;;;2.25;0.80;;;17.10;99.90;;;;;;5061301;28;20649;-82
2022/10/25 10:31:52;;;;;;;1.45;0.70;;;17.10;99.90;;;;;;5026144;28;20527;-82
2022/10/25 10:34:21;;;;;;;1.00;0.50;;;17.10;99.90;;;;;;5045426;28;20049;-80
2022/10/25 10:37:16;;;;;;;1.98;1.05;;;17.20;99.90;;;;;;5045368;28;20064;-85
2022/10/25 10:39:54;;;;;;;3.85;1.33;;;17.30;99.90;;;;;;5045995;28;20527;-82
2022/10/25 10:42:36;;;;;;;1.67;0.88;;;17.40;99.90;;;;;;5047183;28;20473;-78
2022/10/25 10:45:12;;;;;;;1.00;0.70;;;17.40;99.90;;;;;;5045556;28;20175;-81
2022/10/25 10:47:41;;;;;;;1.38;1.00;;;17.50;99.90;;;;;;5057147;28;20045;-82
2022/10/25 10:50:20;;;;;;;0.85;0.60;;;17.40;99.90;;;;;;5039634;28;20049;-81
2022/10/25 10:52:47;;;;;;;0.88;0.50;;;17.30;99.90;;;;;;5044656;28;20132;-81
2022/10/25 10:55:16;;;;;;;1.27;0.68;;;17.30;99.90;;;;;;5040145;28;20590;-82
2022/10/25 10:57:44;;;;;;;0.50;0.50;;;17.30;99.90;;;;;;5026040;28;20136;-82
2022/10/25 11:00:23;;;;;;;0.88;0.50;;;17.20;99.90;;;;;;5045727;28;20044;-82
2022/10/25 11:02:50;;;;;;;0.73;0.38;;;17.20;99.90;;;;;;5062868;28;20052;-82
2022/10/25 11:05:24;;;;;;;1.55;0.60;;;17.10;99.90;;;;;;5028367;28;20130;-82
2022/10/25 11:08:06;;;;;;;1.17;0.63;;;17.00;99.90;;;;;;5066729;28;20088;-82
2022/10/25 11:10:34;;;;;;;1.10;0.60;;;16.70;99.90;;;;;;5047129;28;20306;-82
2022/10/25 11:13:19;;;;;;;0.93;0.80;;;16.50;99.90;;;;;;5011950;28;20068;-81
2022/10/25 11:15:51;;;;;;;0.65;0.50;;;16.30;99.90;;;;;;5045934;28;20053;-83
2022/10/25 11:18:22;;;;;;;0.43;0.43;;;16.20;99.90;;;;;;5047267;28;20069;-84
2022/10/25 11:20:55;;;;;;;1.23;0.60;;;16.00;99.90;;;;;;5041861;28;20047;-82
2022/10/25 11:23:25;;;;;;;;;;;15.90;99.90;;;;;;5045167;28;20139;-83
2022/10/25 11:26:09;;;;;;;0.75;0.60;;;15.80;99.90;;;;;;5024143;28;19924;-83
2022/10/25 11:29:12;;;;;;;0.68;0.50;;;16.00;99.90;;;;;;5012081;28;20056;-83
2022/10/25 11:32:14;;;;;;;0.95;0.70;;;16.10;99.90;;;;;;5046071;28;20506;-83
2022/10/25 11:34:52;;;;;;;0.45;0.40;;;16.10;99.90;;;;;;5018237;28;20076;-83
2022/10/25 11:37:28;;;;;;;1.35;0.60;;;16.20;99.90;;;;;;5062722;28;20114;-82
2022/10/25 11:39:58;;;;;;;0.47;0.40;;;16.30;99.90;;;;;;5043466;28;20046;-83
2022/10/25 11:42:41;;;;;;;1.50;0.55;;;16.30;99.90;;;;;;5049278;28;20056;-83
2022/10/25 11:45:18;;;;;;;1.00;0.50;;;16.40;99.90;;;;;;5045232;28;20057;-83
2022/10/25 11:47:52;;;;;;;0.73;0.50;;;16.40;99.90;;;;;;5009714;28;20108;-83
2022/10/25 11:50:22;;;;;;;1.77;0.80;;;16.40;99.90;;;;;;5055680;28;20061;-82
2022/10/25 11:53:30;;;;;;;0.50;0.50;;;16.50;99.90;;;;;;5044283;28;20056;-83
2022/10/25 11:56:19;;;;;;;0.85;0.55;;;16.50;99.90;;;;;;5038425;28;20052;-82
2022/10/25 11:58:50;;;;;;;1.38;0.50;;;16.50;99.90;;;;;;5007417;28;20044;-82
2022/10/25 12:01:32;;;;;;;1.17;0.55;;;16.60;99.90;;;;;;5045806;28;20068;-84
2022/10/25 12:04:24;;;;;;;0.73;0.68;;;16.80;99.90;;;;;;5046205;28;20139;-83
2022/10/25 12:07:10;;;;;;;1.10;0.80;;;17.20;99.90;;;;;;5049593;28;20675;-83
2022/10/25 12:10:03;;;;;;;0.73;0.50;;;17.80;99.90;;;;;;5058205;28;20041;-83
2022/10/25 12:12:43;;;;;;;1.15;0.57;;;18.00;99.90;;;;;;5001526;28;20049;-82
2022/10/25 12:15:13;;;;;;;0.90;0.47;;;18.10;99.90;;;;;;5055289;28;20044;-84
2022/10/25 12:17:40;;;;;;;1.42;0.57;;;18.20;99.90;;;;;;5014820;28;20083;-83
2022/10/25 12:20:09;;;;;;;1.35;0.80;;;18.10;99.90;;;;;;5040947;28;20056;-83
2022/10/25 12:22:42;;;;;;;1.35;0.60;;;18.10;99.90;;;;;;5011519;28;20057;-83
2022/10/25 12:25:18;;;;;;;1.13;0.50;;;18.00;99.90;;;;;;5005470;28;20140;-84
2022/10/25 12:27:46;;;;;;;1.00;0.70;;;18.00;99.90;;;;;;5021334;28;20570;-83
2022/10/25 12:30:14;;;;;;;0.77;0.52;;;17.90;99.90;;;;;;5006577;28;20045;-85
2022/10/25 12:32:50;;;;;;;1.08;0.60;;;17.80;99.90;;;;;;5024288;28;20060;-84
2022/10/25 12:35:33;;;;;;;1.25;0.50;;;17.80;99.90;;;;;;5035141;28;20052;-85
2022/10/25 12:38:14;;;;;;;0.80;0.47;;;17.70;99.90;;;;;;5025735;28;20148;-83
2022/10/25 12:40:44;;;;;;;0.70;0.43;;;17.70;99.90;;;;;;5010317;28;20056;-84
2022/10/25 12:43:25;;;;;;;0.28;0.28;;;17.70;99.90;;;;;;5043970;28;20095;-86
2022/10/25 12:46:04;;;;;;;0.40;0.40;;;17.80;99.90;;;;;;5027977;28;20060;-84
2022/10/25 12:49:00;;;;;;;0.88;0.50;;;17.90;99.90;;;;;;5075232;28;20044;-84
2022/10/25 12:51:50;;;;;;;0.75;0.57;;;18.30;99.90;;;;;;5027942;28;20052;-84
2022/10/25 12:54:29;;;;;;;0.63;0.50;;;18.90;99.90;;;;;;5013983;28;20053;-84
2022/10/25 12:57:06;;;;;;;1.33;0.45;;;19.40;99.90;;;;;;5041434;28;20049;-84
2022/10/25 13:00:01;;;;;;;1.02;0.70;;;19.70;99.90;;;;;;5065622;28;20137;-83
2022/10/25 13:02:43;;;;;;;0.73;0.70;;;19.90;99.90;;;;;;5040001;28;20565;-84
2022/10/25 13:05:33;;;;;;;0.77;0.47;;;19.90;99.90;;;;;;5044725;28;20064;-84
2022/10/25 13:08:02;;;;;;;0.80;0.55;;;20.00;99.90;;;;;;5048558;28;20041;-83
2022/10/25 13:10:31;;;;;;;0.73;0.43;;;20.30;99.90;;;;;;5063819;28;20055;-83
2022/10/25 13:13:06;;;;;;;0.90;0.50;;;20.30;99.90;;;;;;5039201;28;20071;-83